Terminal Aerodrome Forecast
Issued by NWS

Home | Current Version | Previous Version | Text Only | Print | Product List | Glossary Off
Versions: 1 2 3 4 5 6 7 8 9 10 11 12 13 14 15 16 17

000
FTUS43 KTOP 282300
TAFFOE
TAF
KFOE 282331Z 2900/2924 17011KT P6SM SCT060 BKN150
     FM290300 17007KT P6SM VCTS SCT050CB BKN120
      TEMPO 2906/2910 4SM -TSRA SCT012 OVC040CB
     FM291400 22011KT P6SM VCTS SCT030CB BKN100=

USA.gov is the U.S. government's official web portal to all federal, state and local government web resources and services.